Etusivu
METAR-TAF:

METAR-TAF

Lentoasemat :

Aghajari, Iran

Leveyspiiri: 30-46N, Pituuspiiri: 049-40E, korkeus merenpinnasta: 29 m

Tämänhetkinen sää

Tämä raportti tehtiin 59 minuuttia sitten, kello 13.00 UTC
Tuuli 12 kn etelästä/kaakosta
Lämpötila 22°C
Kosteus 57%
Ilmanpaine 1011 hPa
Näkyvyys 10 km tai enemmän
Muutamia pilviä 3500 ft:n korkeudessa, Cumulonimbus.
Hajanaisia pilviä 4000 ft:n korkeudessa

METAR: OIAG 201300Z 16012KT 9999 FEW035CB SCT040 22/13 Q1011

Aika: 17:29 (13:59 UTC)


TAF: puuttuu

Säähavainnot ja -ennusteet yli 4000 lentoasemalta (METAR- ja TAF-raportit).

Käytössä olevat sääasemat on merkitty karttaan keltaisilla ja punaisilla pisteillä.

Aseta hiiri pisteen päälle nähdäksesi sääaseman nimen.

Klikkaa sitten nähdäksesi säähavainnot ja -ennusteet.

Kartan vaihtaminen: klikkaa mustalla rastilla varustettuja vihreitä pisteitä, niin voit zoomata sisään; viivalla varustettua vihreää pistettä, niin voit zoomata ulos tai vihreitä nuolia, niin pääset viereisille kartoille.


METAR-TAF: